createdAt,value
2023-04-09T00:01:47.195Z,16.63
2023-04-09T00:04:22.433Z,17.40
2023-04-09T00:06:55.220Z,17.15
2023-04-09T00:09:28.125Z,15.68
2023-04-09T00:14:33.399Z,16.77
2023-04-09T00:17:06.070Z,16.05
2023-04-09T00:19:40.280Z,18.52
2023-04-09T00:22:13.193Z,16.92
2023-04-09T00:27:26.517Z,18.25
2023-04-09T00:29:59.297Z,17.58
2023-04-09T00:32:32.144Z,18.63
2023-04-09T00:37:40.123Z,16.05
2023-04-09T00:40:13.181Z,16.30
2023-04-09T00:42:46.094Z,17.00
2023-04-09T00:47:51.902Z,22.05
2023-04-09T00:50:26.498Z,16.23
2023-04-09T00:52:59.333Z,14.32
2023-04-09T00:55:32.555Z,15.52
2023-04-09T00:58:05.530Z,18.17
2023-04-09T01:00:38.767Z,14.90
2023-04-09T01:03:11.716Z,15.40
2023-04-09T01:05:54.562Z,15.38
2023-04-09T01:08:34.570Z,14.75
2023-04-09T01:11:16.991Z,19.67
2023-04-09T01:13:58.722Z,14.15
2023-04-09T01:16:35.271Z,16.15
2023-04-09T01:19:14.844Z,17.27
2023-04-09T01:21:49.575Z,15.13
2023-04-09T01:24:42.621Z,14.70
2023-04-09T01:27:17.344Z,16.67
2023-04-09T01:30:03.180Z,15.80
2023-04-09T01:32:39.952Z,15.43
2023-04-09T01:35:13.814Z,20.52
2023-04-09T01:37:47.374Z,14.73
2023-04-09T01:40:20.452Z,14.48
2023-04-09T01:42:54.787Z,18.60
2023-04-09T01:45:28.981Z,15.50
2023-04-09T01:48:03.567Z,16.38
2023-04-09T01:50:36.826Z,17.77
2023-04-09T01:53:09.767Z,13.80
2023-04-09T01:55:42.948Z,15.95
2023-04-09T01:58:15.781Z,17.20
2023-04-09T02:00:50.602Z,16.02
2023-04-09T02:03:26.265Z,15.95
2023-04-09T02:06:05.306Z,18.10
2023-04-09T02:08:38.729Z,16.05
2023-04-09T02:11:12.619Z,16.52
2023-04-09T02:13:46.118Z,15.75
2023-04-09T02:16:21.928Z,14.77
2023-04-09T02:18:57.457Z,20.05
2023-04-09T02:21:31.746Z,14.13
2023-04-09T02:24:04.735Z,15.68
2023-04-09T02:29:10.278Z,15.13
2023-04-09T02:31:45.175Z,14.57
2023-04-09T02:34:17.975Z,16.70
2023-04-09T02:36:50.864Z,14.18
2023-04-09T02:41:57.814Z,15.10
2023-04-09T02:44:32.795Z,15.88
2023-04-09T02:47:07.490Z,15.45
2023-04-09T02:49:41.299Z,15.02
2023-04-09T02:54:46.636Z,15.73
2023-04-09T02:57:19.660Z,14.88
2023-04-09T03:02:26.551Z,15.27
2023-04-09T03:04:59.474Z,17.75
2023-04-09T03:07:32.254Z,16.33
2023-04-09T03:10:05.443Z,16.10
2023-04-09T03:12:38.128Z,17.10
2023-04-09T03:15:11.458Z,16.75
2023-04-09T03:17:45.928Z,18.17
2023-04-09T03:20:18.777Z,16.05
2023-04-09T03:25:32.306Z,16.52
2023-04-09T03:28:09.183Z,17.10
2023-04-09T03:30:47.287Z,15.27
2023-04-09T03:33:22.274Z,15.50
2023-04-09T03:35:59.084Z,15.02
2023-04-09T03:39:01.594Z,16.83
2023-04-09T03:41:43.294Z,13.63
2023-04-09T03:44:20.292Z,15.98
2023-04-09T03:47:06.873Z,18.35
2023-04-09T03:49:42.380Z,15.90
2023-04-09T03:52:29.832Z,15.82
2023-04-09T03:55:11.350Z,15.80
2023-04-09T03:57:44.409Z,14.57
2023-04-09T04:00:22.594Z,15.88
2023-04-09T04:03:18.870Z,14.43
2023-04-09T04:06:12.917Z,15.18
2023-04-09T04:09:11.854Z,16.67
2023-04-09T04:11:50.012Z,13.52
2023-04-09T04:14:24.390Z,16.73
2023-04-09T04:17:03.818Z,15.00
2023-04-09T04:19:37.647Z,14.35
2023-04-09T04:22:11.950Z,13.35
2023-04-09T04:24:48.218Z,14.55
2023-04-09T04:27:25.573Z,15.45
2023-04-09T04:30:02.117Z,15.90
2023-04-09T04:33:01.422Z,15.20
2023-04-09T04:35:41.240Z,14.80
2023-04-09T04:38:21.811Z,14.52
2023-04-09T04:40:56.045Z,14.38
2023-04-09T04:43:29.866Z,14.48
2023-04-09T04:46:06.229Z,13.95
2023-04-09T04:48:39.577Z,14.38
2023-04-09T04:51:12.671Z,12.32
2023-04-09T04:53:52.642Z,14.45
2023-04-09T04:56:25.436Z,13.90
2023-04-09T04:59:08.140Z,14.43
2023-04-09T05:01:53.142Z,12.82
2023-04-09T05:04:26.036Z,15.82
2023-04-09T05:06:59.784Z,13.70
2023-04-09T05:09:34.121Z,13.98
2023-04-09T05:12:11.510Z,15.32
2023-04-09T05:14:44.809Z,13.75
2023-04-09T05:17:17.545Z,12.80
2023-04-09T05:19:52.566Z,15.13
2023-04-09T05:22:29.588Z,13.63
2023-04-09T05:27:37.281Z,14.30
2023-04-09T05:30:11.428Z,14.02
2023-04-09T05:32:45.453Z,13.68
2023-04-09T05:35:18.502Z,14.07
2023-04-09T05:37:51.652Z,12.45
2023-04-09T05:40:25.919Z,12.00
2023-04-09T05:42:59.782Z,16.85
2023-04-09T05:45:45.977Z,15.98
2023-04-09T05:48:19.735Z,14.68
2023-04-09T05:50:55.358Z,14.35
2023-04-09T05:53:32.765Z,13.88
2023-04-09T05:56:14.335Z,14.13
2023-04-09T05:58:53.557Z,12.65
2023-04-09T06:03:59.353Z,12.80
2023-04-09T06:06:36.017Z,16.90
2023-04-09T06:09:08.728Z,14.48
2023-04-09T06:11:44.990Z,16.33
2023-04-09T06:14:18.469Z,17.20
2023-04-09T06:16:51.264Z,16.23
2023-04-09T06:19:24.029Z,16.33
2023-04-09T06:21:56.720Z,16.00
2023-04-09T06:24:29.765Z,15.45
2023-04-09T06:27:04.113Z,18.05
2023-04-09T06:29:37.299Z,14.32
2023-04-09T06:32:10.349Z,17.60
2023-04-09T06:37:15.827Z,19.58
2023-04-09T06:40:00.624Z,18.70
2023-04-09T06:42:35.675Z,19.67
2023-04-09T06:45:20.648Z,17.67
2023-04-09T06:47:53.385Z,18.25
2023-04-09T06:50:26.652Z,17.40
2023-04-09T06:52:59.510Z,18.70
2023-04-09T06:55:32.254Z,18.33
2023-04-09T06:58:06.762Z,20.33
2023-04-09T07:00:39.746Z,20.55
2023-04-09T07:03:18.551Z,25.33
2023-04-09T07:05:52.044Z,23.20
2023-04-09T07:08:25.119Z,24.60
2023-04-09T07:10:57.997Z,25.77
2023-04-09T07:16:06.794Z,26.23
2023-04-09T07:18:40.296Z,29.40
2023-04-09T07:21:13.144Z,28.13
2023-04-09T07:23:46.755Z,24.95
2023-04-09T07:26:19.688Z,28.35
2023-04-09T07:31:27.326Z,27.08
2023-04-09T07:34:00.231Z,26.50
2023-04-09T07:39:05.760Z,28.42
2023-04-09T07:44:13.759Z,40.20
2023-04-09T07:46:47.224Z,32.05
2023-04-09T07:49:20.070Z,33.53
2023-04-09T07:54:26.123Z,30.27
2023-04-09T07:59:34.367Z,30.17
2023-04-09T08:02:07.384Z,34.67
2023-04-09T08:04:40.514Z,35.25
2023-04-09T08:07:13.586Z,37.15
2023-04-09T08:09:46.509Z,36.50
2023-04-09T08:12:19.437Z,35.78
2023-04-09T08:14:53.670Z,37.60
2023-04-09T08:17:27.449Z,37.25
2023-04-09T08:20:00.771Z,36.97
2023-04-09T08:22:34.599Z,40.08
2023-04-09T08:25:08.522Z,40.75
2023-04-09T08:27:41.382Z,42.42
2023-04-09T08:32:51.610Z,42.20
2023-04-09T08:37:57.653Z,44.38
2023-04-09T08:40:35.554Z,43.72
2023-04-09T08:43:09.482Z,47.13
2023-04-09T08:45:44.226Z,48.85
2023-04-09T08:48:19.256Z,48.05
2023-04-09T08:50:52.673Z,48.28
2023-04-09T08:53:27.474Z,53.55
2023-04-09T08:56:00.639Z,54.45
2023-04-09T08:58:34.456Z,49.50
2023-04-09T09:01:19.681Z,58.83
2023-04-09T09:03:58.027Z,57.90
2023-04-09T09:06:33.423Z,57.15
2023-04-09T09:09:08.496Z,55.05
2023-04-09T09:11:43.184Z,56.55
2023-04-09T09:14:18.054Z,57.10
2023-04-09T09:17:08.458Z,55.88
2023-04-09T09:19:41.473Z,60.03
2023-04-09T09:27:37.073Z,62.72
2023-04-09T09:30:12.015Z,59.03
2023-04-09T09:32:46.518Z,58.47
2023-04-09T09:35:19.533Z,60.13
2023-04-09T09:38:04.076Z,60.95
2023-04-09T09:40:36.987Z,65.40
2023-04-09T09:45:50.251Z,68.32
2023-04-09T09:48:25.766Z,72.80
2023-04-09T09:51:01.607Z,71.50
2023-04-09T09:53:40.813Z,77.40
2023-04-09T09:56:20.245Z,76.90
2023-04-09T09:59:03.748Z,79.47
2023-04-09T10:01:38.551Z,79.07
2023-04-09T10:04:18.760Z,75.05
2023-04-09T10:06:56.551Z,76.38
2023-04-09T10:09:29.736Z,82.40
2023-04-09T10:12:05.013Z,85.72
2023-04-09T10:14:41.238Z,77.40
2023-04-09T10:17:16.244Z,78.05
2023-04-09T10:20:00.501Z,73.43
2023-04-09T10:22:36.367Z,76.07
2023-04-09T10:25:10.004Z,80.45
2023-04-09T10:27:46.165Z,78.28
2023-04-09T10:30:34.559Z,77.80
2023-04-09T10:33:11.765Z,78.80
2023-04-09T10:35:48.675Z,78.50
2023-04-09T10:38:35.503Z,81.40
2023-04-09T10:41:15.158Z,78.32
2023-04-09T10:43:48.897Z,81.10
2023-04-09T10:46:29.479Z,77.97
2023-04-09T10:49:18.027Z,86.20
2023-04-09T10:52:03.305Z,76.10
2023-04-09T10:54:45.798Z,76.93
2023-04-09T10:57:22.738Z,77.03
2023-04-09T10:59:56.488Z,81.75
2023-04-09T11:03:03.104Z,68.30
2023-04-09T11:05:40.482Z,76.88
2023-04-09T11:08:15.726Z,77.82
2023-04-09T11:10:51.219Z,74.68
2023-04-09T11:13:25.779Z,73.55
2023-04-09T11:16:00.201Z,71.95
2023-04-09T11:18:34.811Z,70.55
2023-04-09T11:21:07.790Z,79.70
2023-04-09T11:23:43.041Z,74.68
2023-04-09T11:26:16.638Z,74.88
2023-04-09T11:28:49.460Z,78.22
2023-04-09T11:31:28.816Z,74.50
2023-04-09T11:34:01.701Z,72.50
2023-04-09T11:36:36.714Z,66.95
2023-04-09T11:39:10.949Z,72.50
2023-04-09T11:41:44.735Z,73.95
2023-04-09T11:44:17.540Z,74.68
2023-04-09T11:49:25.279Z,68.97
2023-04-09T11:52:01.089Z,73.25
2023-04-09T11:54:35.814Z,71.63
2023-04-09T11:57:08.791Z,73.45
2023-04-09T12:02:19.095Z,67.95
2023-04-09T12:04:52.819Z,80.25
2023-04-09T12:07:33.412Z,68.45
2023-04-09T12:10:11.540Z,66.00
2023-04-09T12:12:46.199Z,71.80
2023-04-09T12:15:23.151Z,73.30
2023-04-09T12:17:57.079Z,64.60
2023-04-09T12:20:35.771Z,68.97
2023-04-09T12:23:10.013Z,62.78
2023-04-09T12:25:45.503Z,63.72
2023-04-09T12:28:18.982Z,64.68
2023-04-09T12:30:52.607Z,65.43
2023-04-09T12:33:25.365Z,62.42
2023-04-09T12:35:58.635Z,60.50
2023-04-09T12:38:31.479Z,64.13
2023-04-09T12:41:05.850Z,59.28
2023-04-09T12:43:39.230Z,53.97
2023-04-09T12:46:13.027Z,55.42
2023-04-09T12:48:45.918Z,52.88
2023-04-09T12:53:51.639Z,53.10
2023-04-09T12:56:26.691Z,50.63
2023-04-09T12:59:00.739Z,52.72
2023-04-09T13:04:06.783Z,51.50
2023-04-09T13:09:12.273Z,52.30
2023-04-09T13:11:46.449Z,48.63
2023-04-09T13:14:19.586Z,49.42
2023-04-09T13:16:54.145Z,46.40
2023-04-09T13:19:28.272Z,47.53
2023-04-09T13:22:10.089Z,50.85
2023-04-09T13:24:45.897Z,46.83
2023-04-09T13:27:20.746Z,43.53
2023-04-09T13:29:53.562Z,44.40
2023-04-09T13:32:26.682Z,47.88
2023-04-09T13:34:59.587Z,45.17
2023-04-09T13:40:05.132Z,40.65
2023-04-09T13:45:12.551Z,42.85
2023-04-09T13:47:45.329Z,41.90
2023-04-09T13:50:18.384Z,39.28
2023-04-09T13:55:23.851Z,43.17
2023-04-09T13:57:57.934Z,40.30
2023-04-09T14:00:31.726Z,37.60
2023-04-09T14:03:05.052Z,41.47
2023-04-09T14:05:43.769Z,38.83
2023-04-09T14:08:18.461Z,42.05
2023-04-09T14:10:53.143Z,38.90
2023-04-09T14:13:27.324Z,41.80
2023-04-09T14:16:00.654Z,35.92
2023-04-09T14:18:35.771Z,39.05
2023-04-09T14:21:10.314Z,35.70
2023-04-09T14:23:43.401Z,35.92
2023-04-09T14:26:16.567Z,34.05
2023-04-09T14:28:50.874Z,34.45
2023-04-09T14:31:27.037Z,40.58
2023-04-09T14:33:59.919Z,37.53
2023-04-09T14:36:33.017Z,33.92
2023-04-09T14:39:05.739Z,31.35
2023-04-09T14:41:38.470Z,30.88
2023-04-09T14:44:12.578Z,29.10
2023-04-09T14:46:45.520Z,29.83
2023-04-09T14:49:18.271Z,30.63
2023-04-09T14:51:51.051Z,31.52
2023-04-09T14:56:57.113Z,29.73
2023-04-09T14:59:31.138Z,25.05
2023-04-09T15:02:03.959Z,26.10
2023-04-09T15:04:36.848Z,25.85
2023-04-09T15:07:09.716Z,25.42
2023-04-09T15:12:14.864Z,27.40
2023-04-09T15:14:48.917Z,27.15
2023-04-09T15:17:21.958Z,22.17
2023-04-09T15:19:54.723Z,22.58
2023-04-09T15:22:27.556Z,25.70
2023-04-09T15:25:00.531Z,24.55
2023-04-09T15:30:09.164Z,27.48
2023-04-09T15:32:42.071Z,20.08
2023-04-09T15:37:51.938Z,21.25
2023-04-09T15:43:01.507Z,21.60
2023-04-09T15:45:35.570Z,20.65
2023-04-09T15:48:08.600Z,17.58
2023-04-09T15:50:41.330Z,21.63
2023-04-09T15:53:14.957Z,22.65
2023-04-09T15:55:49.320Z,17.60
2023-04-09T15:58:22.194Z,16.95
2023-04-09T16:03:28.834Z,17.83
2023-04-09T16:06:07.340Z,17.67
2023-04-09T16:08:40.719Z,17.38
2023-04-09T16:11:13.392Z,17.42
2023-04-09T16:13:46.146Z,19.13
2023-04-09T16:16:20.764Z,16.35
2023-04-09T16:18:57.454Z,15.13
2023-04-09T16:21:30.065Z,15.32
2023-04-09T16:24:02.937Z,16.95
2023-04-09T16:29:08.581Z,17.63
2023-04-09T16:31:42.861Z,17.83
2023-04-09T16:34:15.807Z,16.77
2023-04-09T16:39:21.166Z,13.90
2023-04-09T16:41:53.771Z,16.30
2023-04-09T16:44:26.912Z,17.67
2023-04-09T16:47:01.122Z,19.35
2023-04-09T16:49:33.968Z,16.45
2023-04-09T16:52:06.764Z,16.75
2023-04-09T16:54:39.796Z,13.85
2023-04-09T16:57:12.738Z,13.30
2023-04-09T17:02:22.045Z,16.33
2023-04-09T17:04:55.213Z,15.65
2023-04-09T17:07:28.487Z,13.27
2023-04-09T17:10:01.200Z,14.40
2023-04-09T17:12:34.126Z,13.95
2023-04-09T17:17:41.381Z,11.35
2023-04-09T17:20:14.859Z,15.68
2023-04-09T17:22:47.629Z,26.70
2023-04-09T17:25:21.445Z,38.33
2023-04-09T17:27:54.575Z,33.97
2023-04-09T17:30:27.552Z,42.95
2023-04-09T17:35:34.791Z,42.88
2023-04-09T17:40:40.446Z,40.13
2023-04-09T17:45:47.005Z,47.58
2023-04-09T17:50:54.133Z,46.10
2023-04-09T17:53:27.234Z,51.15
2023-04-09T17:58:35.906Z,49.85
2023-04-09T18:01:09.704Z,54.85
2023-04-09T18:03:45.642Z,55.40
2023-04-09T18:06:18.836Z,60.17
2023-04-09T18:08:52.463Z,54.35
2023-04-09T18:11:25.975Z,56.75
2023-04-09T18:13:58.746Z,56.55
2023-04-09T18:16:32.102Z,59.42
2023-04-09T18:19:06.768Z,62.75
2023-04-09T18:21:39.644Z,60.15
2023-04-09T18:24:12.702Z,62.35
2023-04-09T18:29:20.715Z,65.88
2023-04-09T18:31:55.719Z,63.53
2023-04-09T18:34:29.938Z,63.33
2023-04-09T18:37:02.830Z,67.78
2023-04-09T18:39:36.335Z,64.38
2023-04-09T18:42:09.031Z,61.60
2023-04-09T18:44:42.460Z,64.70
2023-04-09T18:47:15.445Z,66.68
2023-04-09T18:49:49.616Z,71.75
2023-04-09T18:52:22.487Z,65.70
2023-04-09T18:54:55.757Z,69.32
2023-04-09T18:57:28.907Z,69.38
2023-04-09T19:00:03.368Z,65.75
2023-04-09T19:02:36.662Z,69.68
2023-04-09T19:05:11.877Z,71.32
2023-04-09T19:07:44.608Z,68.70
2023-04-09T19:10:17.281Z,75.30
2023-04-09T19:12:53.756Z,70.28
2023-04-09T19:15:28.605Z,71.78
2023-04-09T19:18:01.464Z,74.68
2023-04-09T19:20:35.534Z,70.18
2023-04-09T19:23:08.664Z,72.15
2023-04-09T19:25:42.827Z,75.80
2023-04-09T19:28:15.854Z,72.50
2023-04-09T19:30:50.334Z,77.18
2023-04-09T19:33:24.362Z,73.18
2023-04-09T19:35:58.703Z,68.82
2023-04-09T19:38:34.499Z,67.35
2023-04-09T19:41:07.545Z,70.80
2023-04-09T19:43:41.896Z,69.32
2023-04-09T19:46:14.668Z,70.63
2023-04-09T19:48:48.508Z,71.40
2023-04-09T19:51:22.833Z,71.25
2023-04-09T19:53:55.626Z,70.20
2023-04-09T19:56:28.505Z,72.40
2023-04-09T19:59:02.280Z,70.75
2023-04-09T20:01:35.289Z,69.88
2023-04-09T20:04:09.267Z,72.40
2023-04-09T20:06:45.440Z,68.15
2023-04-09T20:09:18.925Z,75.97
2023-04-09T20:11:52.037Z,71.97
2023-04-09T20:16:57.813Z,67.95
2023-04-09T20:22:05.379Z,68.18
2023-04-09T20:24:38.387Z,64.13
2023-04-09T20:29:44.219Z,58.13
2023-04-09T20:32:17.216Z,58.50
2023-04-09T20:34:50.443Z,56.92
2023-04-09T20:37:24.708Z,60.78
2023-04-09T20:39:58.878Z,59.42
2023-04-09T20:42:33.294Z,58.70
2023-04-09T20:45:07.470Z,55.65
2023-04-09T20:47:43.499Z,54.13
2023-04-09T20:50:16.569Z,54.05
2023-04-09T20:52:50.877Z,54.15
2023-04-09T20:55:23.891Z,52.67
2023-04-09T21:00:32.104Z,52.03
2023-04-09T21:03:05.294Z,48.85
2023-04-09T21:05:38.513Z,46.15
2023-04-09T21:08:15.411Z,40.05
2023-04-09T21:10:48.192Z,43.30
2023-04-09T21:13:21.398Z,44.28
2023-04-09T21:15:58.255Z,39.75
2023-04-09T21:18:31.206Z,41.58
2023-04-09T21:21:07.647Z,37.03
2023-04-09T21:23:42.547Z,41.10
2023-04-09T21:26:15.678Z,34.22
2023-04-09T21:28:50.584Z,34.53
2023-04-09T21:31:23.753Z,34.53
2023-04-09T21:33:56.733Z,34.50
2023-04-09T21:39:22.917Z,31.35
2023-04-09T21:41:55.890Z,30.25
2023-04-09T21:47:02.017Z,32.00
2023-04-09T21:49:40.735Z,31.92
2023-04-09T21:52:15.638Z,28.40
2023-04-09T21:54:54.435Z,30.58
2023-04-09T21:57:27.353Z,27.73
2023-04-09T22:00:00.305Z,25.50
2023-04-09T22:05:10.656Z,27.20
2023-04-09T22:07:44.608Z,23.60
2023-04-09T22:10:19.348Z,24.35
2023-04-09T22:12:52.190Z,23.10
2023-04-09T22:15:25.041Z,21.23
2023-04-09T22:17:58.674Z,22.58
2023-04-09T22:20:34.697Z,21.45
2023-04-09T22:23:08.687Z,21.30
2023-04-09T22:25:43.007Z,22.63
2023-04-09T22:28:15.809Z,19.83
2023-04-09T22:30:48.519Z,22.77
2023-04-09T22:33:21.536Z,19.60
2023-04-09T22:38:27.371Z,19.98
2023-04-09T22:43:34.052Z,18.30
2023-04-09T22:46:07.208Z,21.50
2023-04-09T22:48:44.521Z,17.65
2023-04-09T22:51:17.897Z,17.52
2023-04-09T22:53:53.401Z,18.73
2023-04-09T22:56:27.662Z,18.77
2023-04-09T22:59:00.897Z,23.02
2023-04-09T23:01:34.085Z,16.27
2023-04-09T23:04:08.617Z,19.80
2023-04-09T23:06:41.648Z,18.02
2023-04-09T23:09:14.482Z,18.35
2023-04-09T23:11:48.611Z,16.63
2023-04-09T23:14:21.478Z,18.42
2023-04-09T23:16:54.183Z,20.23
2023-04-09T23:19:27.106Z,21.70
2023-04-09T23:21:59.869Z,20.48
2023-04-09T23:24:32.783Z,19.27
2023-04-09T23:27:09.766Z,15.75
2023-04-09T23:29:42.929Z,17.90
2023-04-09T23:32:15.766Z,19.10
2023-04-09T23:37:24.668Z,15.13
2023-04-09T23:40:00.225Z,21.50
2023-04-09T23:42:34.552Z,22.25
2023-04-09T23:45:08.431Z,18.25
2023-04-09T23:47:42.337Z,17.98
2023-04-09T23:50:15.489Z,22.30
2023-04-09T23:52:50.060Z,19.00
2023-04-09T23:55:23.006Z,19.42
2023-04-09T23:57:57.574Z,17.17
